sensor_id;sensor_type;location;lat;lon;timestamp;temperature;humidity
54006;DHT22;39919;38.160;-122.260;2023-05-16T00:01:21;22.80;65.10
54006;DHT22;39919;38.160;-122.260;2023-05-16T00:03:54;22.80;64.60
54006;DHT22;39919;38.160;-122.260;2023-05-16T00:06:24;22.80;64.60
54006;DHT22;39919;38.160;-122.260;2023-05-16T00:08:53;22.80;64.80
54006;DHT22;39919;38.160;-122.260;2023-05-16T00:11:22;22.80;64.40
54006;DHT22;39919;38.160;-122.260;2023-05-16T00:13:51;22.80;65.00
54006;DHT22;39919;38.160;-122.260;2023-05-16T00:16:20;22.80;65.20
54006;DHT22;39919;38.160;-122.260;2023-05-16T00:18:53;22.80;65.30
54006;DHT22;39919;38.160;-122.260;2023-05-16T00:21:23;22.80;65.40
54006;DHT22;39919;38.160;-122.260;2023-05-16T00:23:52;22.80;65.10
54006;DHT22;39919;38.160;-122.260;2023-05-16T00:26:39;22.80;64.80
54006;DHT22;39919;38.160;-122.260;2023-05-16T00:29:08;22.90;64.70
54006;DHT22;39919;38.160;-122.260;2023-05-16T00:31:37;22.80;64.60
54006;DHT22;39919;38.160;-122.260;2023-05-16T00:34:08;22.80;64.50
54006;DHT22;39919;38.160;-122.260;2023-05-16T00:36:37;22.80;64.60
54006;DHT22;39919;38.160;-122.260;2023-05-16T00:39:06;22.80;64.90
54006;DHT22;39919;38.160;-122.260;2023-05-16T00:41:36;22.80;65.10
54006;DHT22;39919;38.160;-122.260;2023-05-16T00:44:05;22.80;65.00
54006;DHT22;39919;38.160;-122.260;2023-05-16T00:46:38;22.80;65.40
54006;DHT22;39919;38.160;-122.260;2023-05-16T00:49:09;22.80;65.30
54006;DHT22;39919;38.160;-122.260;2023-05-16T00:51:42;22.80;65.10
54006;DHT22;39919;38.160;-122.260;2023-05-16T00:54:14;22.70;64.80
54006;DHT22;39919;38.160;-122.260;2023-05-16T00:56:46;22.70;64.60
54006;DHT22;39919;38.160;-122.260;2023-05-16T00:59:16;22.70;65.10
54006;DHT22;39919;38.160;-122.260;2023-05-16T01:01:46;22.70;65.50
54006;DHT22;39919;38.160;-122.260;2023-05-16T01:04:21;22.60;65.50
54006;DHT22;39919;38.160;-122.260;2023-05-16T01:06:52;22.60;65.70
54006;DHT22;39919;38.160;-122.260;2023-05-16T01:09:23;22.60;65.30
54006;DHT22;39919;38.160;-122.260;2023-05-16T01:11:59;22.60;65.50
54006;DHT22;39919;38.160;-122.260;2023-05-16T01:14:40;22.60;65.50
54006;DHT22;39919;38.160;-122.260;2023-05-16T01:17:19;22.50;65.20
54006;DHT22;39919;38.160;-122.260;2023-05-16T01:20:02;22.50;65.40
54006;DHT22;39919;38.160;-122.260;2023-05-16T01:22:47;22.50;65.40
54006;DHT22;39919;38.160;-122.260;2023-05-16T01:25:30;22.50;65.80
54006;DHT22;39919;38.160;-122.260;2023-05-16T01:28:02;22.40;65.60
54006;DHT22;39919;38.160;-122.260;2023-05-16T01:30:34;22.40;65.80
54006;DHT22;39919;38.160;-122.260;2023-05-16T01:33:06;22.40;65.80
54006;DHT22;39919;38.160;-122.260;2023-05-16T01:35:46;22.40;65.70
54006;DHT22;39919;38.160;-122.260;2023-05-16T01:38:20;22.30;66.00
54006;DHT22;39919;38.160;-122.260;2023-05-16T01:40:54;22.30;65.90
54006;DHT22;39919;38.160;-122.260;2023-05-16T01:43:31;22.20;66.30
54006;DHT22;39919;38.160;-122.260;2023-05-16T01:46:06;22.20;66.60
54006;DHT22;39919;38.160;-122.260;2023-05-16T01:48:45;22.20;66.70
54006;DHT22;39919;38.160;-122.260;2023-05-16T01:51:21;22.10;66.70
54006;DHT22;39919;38.160;-122.260;2023-05-16T01:53:52;22.10;66.70
54006;DHT22;39919;38.160;-122.260;2023-05-16T01:56:25;22.00;66.70
54006;DHT22;39919;38.160;-122.260;2023-05-16T01:58:57;21.90;66.30
54006;DHT22;39919;38.160;-122.260;2023-05-16T02:01:27;21.80;66.60
54006;DHT22;39919;38.160;-122.260;2023-05-16T02:03:58;21.70;67.00
54006;DHT22;39919;38.160;-122.260;2023-05-16T02:06:30;21.70;66.80
54006;DHT22;39919;38.160;-122.260;2023-05-16T02:08:59;21.60;67.20
54006;DHT22;39919;38.160;-122.260;2023-05-16T02:11:30;21.50;67.60
54006;DHT22;39919;38.160;-122.260;2023-05-16T02:14:01;21.40;68.00
54006;DHT22;39919;38.160;-122.260;2023-05-16T02:16:31;21.40;68.30
54006;DHT22;39919;38.160;-122.260;2023-05-16T02:19:00;21.30;68.20
54006;DHT22;39919;38.160;-122.260;2023-05-16T02:21:29;21.20;68.70
54006;DHT22;39919;38.160;-122.260;2023-05-16T02:23:58;21.10;69.10
54006;DHT22;39919;38.160;-122.260;2023-05-16T02:26:27;21.10;69.60
54006;DHT22;39919;38.160;-122.260;2023-05-16T02:28:56;21.00;69.70
54006;DHT22;39919;38.160;-122.260;2023-05-16T02:31:28;20.90;69.90
54006;DHT22;39919;38.160;-122.260;2023-05-16T02:33:58;20.80;70.20
54006;DHT22;39919;38.160;-122.260;2023-05-16T02:36:28;20.70;70.30
54006;DHT22;39919;38.160;-122.260;2023-05-16T02:39:00;20.70;70.30
54006;DHT22;39919;38.160;-122.260;2023-05-16T02:41:30;20.60;70.40
54006;DHT22;39919;38.160;-122.260;2023-05-16T02:43:59;20.50;70.70
54006;DHT22;39919;38.160;-122.260;2023-05-16T02:46:32;20.40;71.30
54006;DHT22;39919;38.160;-122.260;2023-05-16T02:49:05;20.40;71.60
54006;DHT22;39919;38.160;-122.260;2023-05-16T02:51:34;20.30;72.00
54006;DHT22;39919;38.160;-122.260;2023-05-16T02:54:03;20.20;72.30
54006;DHT22;39919;38.160;-122.260;2023-05-16T02:56:35;20.10;72.30
54006;DHT22;39919;38.160;-122.260;2023-05-16T02:59:04;20.00;72.70
54006;DHT22;39919;38.160;-122.260;2023-05-16T03:01:35;19.90;73.10
54006;DHT22;39919;38.160;-122.260;2023-05-16T03:04:04;19.80;73.40
54006;DHT22;39919;38.160;-122.260;2023-05-16T03:06:34;19.70;74.50
54006;DHT22;39919;38.160;-122.260;2023-05-16T03:09:03;19.60;74.40
54006;DHT22;39919;38.160;-122.260;2023-05-16T03:11:33;19.60;74.70
54006;DHT22;39919;38.160;-122.260;2023-05-16T03:14:02;19.40;75.20
54006;DHT22;39919;38.160;-122.260;2023-05-16T03:16:31;19.40;75.70
54006;DHT22;39919;38.160;-122.260;2023-05-16T03:21:37;19.30;99.90
54006;DHT22;39919;38.160;-122.260;2023-05-16T03:24:07;19.20;99.00
54006;DHT22;39919;38.160;-122.260;2023-05-16T03:26:36;19.10;97.60
54006;DHT22;39919;38.160;-122.260;2023-05-16T03:29:05;19.10;95.40
54006;DHT22;39919;38.160;-122.260;2023-05-16T03:31:34;19.00;88.60
54006;DHT22;39919;38.160;-122.260;2023-05-16T03:34:05;18.90;89.10
54006;DHT22;39919;38.160;-122.260;2023-05-16T03:36:34;18.80;92.50
54006;DHT22;39919;38.160;-122.260;2023-05-16T03:39:04;18.70;95.40
54006;DHT22;39919;38.160;-122.260;2023-05-16T03:41:34;18.70;92.30
54006;DHT22;39919;38.160;-122.260;2023-05-16T03:44:04;18.50;91.50
54006;DHT22;39919;38.160;-122.260;2023-05-16T03:46:33;18.50;79.90
54006;DHT22;39919;38.160;-122.260;2023-05-16T03:49:04;18.30;77.00
54006;DHT22;39919;38.160;-122.260;2023-05-16T03:51:34;18.30;77.20
54006;DHT22;39919;38.160;-122.260;2023-05-16T03:54:03;18.20;77.80
54006;DHT22;39919;38.160;-122.260;2023-05-16T03:56:32;18.10;77.50
54006;DHT22;39919;38.160;-122.260;2023-05-16T03:59:01;18.00;77.80
54006;DHT22;39919;38.160;-122.260;2023-05-16T04:01:30;18.00;78.10
54006;DHT22;39919;38.160;-122.260;2023-05-16T04:04:00;17.90;77.80
54006;DHT22;39919;38.160;-122.260;2023-05-16T04:06:30;17.80;77.90
54006;DHT22;39919;38.160;-122.260;2023-05-16T04:09:00;17.70;78.30
54006;DHT22;39919;38.160;-122.260;2023-05-16T04:11:31;17.70;78.80
54006;DHT22;39919;38.160;-122.260;2023-05-16T04:14:08;17.60;79.00
54006;DHT22;39919;38.160;-122.260;2023-05-16T04:16:37;17.50;79.10
54006;DHT22;39919;38.160;-122.260;2023-05-16T04:19:06;17.50;79.30
54006;DHT22;39919;38.160;-122.260;2023-05-16T04:21:37;17.40;79.40
54006;DHT22;39919;38.160;-122.260;2023-05-16T04:24:07;17.30;79.40
54006;DHT22;39919;38.160;-122.260;2023-05-16T04:26:40;17.20;79.50
54006;DHT22;39919;38.160;-122.260;2023-05-16T04:29:12;17.20;80.40
54006;DHT22;39919;38.160;-122.260;2023-05-16T04:31:44;17.10;80.30
54006;DHT22;39919;38.160;-122.260;2023-05-16T04:34:35;17.10;81.10
54006;DHT22;39919;38.160;-122.260;2023-05-16T04:37:28;17.00;81.40
54006;DHT22;39919;38.160;-122.260;2023-05-16T04:39:56;16.90;90.90
54006;DHT22;39919;38.160;-122.260;2023-05-16T04:42:34;16.90;93.10
54006;DHT22;39919;38.160;-122.260;2023-05-16T04:45:04;16.80;93.60
54006;DHT22;39919;38.160;-122.260;2023-05-16T04:47:45;16.80;90.10
54006;DHT22;39919;38.160;-122.260;2023-05-16T04:52:48;16.60;92.20
54006;DHT22;39919;38.160;-122.260;2023-05-16T04:55:18;16.60;82.50
54006;DHT22;39919;38.160;-122.260;2023-05-16T04:57:49;16.50;82.50
54006;DHT22;39919;38.160;-122.260;2023-05-16T05:00:24;16.50;82.20
54006;DHT22;39919;38.160;-122.260;2023-05-16T05:02:54;16.40;82.20
54006;DHT22;39919;38.160;-122.260;2023-05-16T05:05:25;16.40;82.10
54006;DHT22;39919;38.160;-122.260;2023-05-16T05:08:00;16.40;82.40
54006;DHT22;39919;38.160;-122.260;2023-05-16T05:10:29;16.30;82.60
54006;DHT22;39919;38.160;-122.260;2023-05-16T05:12:59;16.20;82.80
54006;DHT22;39919;38.160;-122.260;2023-05-16T05:15:30;16.20;83.10
54006;DHT22;39919;38.160;-122.260;2023-05-16T05:18:02;16.10;83.00
54006;DHT22;39919;38.160;-122.260;2023-05-16T05:20:32;16.10;83.30
54006;DHT22;39919;38.160;-122.260;2023-05-16T05:23:07;16.00;83.20
54006;DHT22;39919;38.160;-122.260;2023-05-16T05:25:37;16.00;83.30
54006;DHT22;39919;38.160;-122.260;2023-05-16T05:28:06;15.90;84.00
54006;DHT22;39919;38.160;-122.260;2023-05-16T05:30:43;15.90;84.40
54006;DHT22;39919;38.160;-122.260;2023-05-16T05:33:17;15.80;84.40
54006;DHT22;39919;38.160;-122.260;2023-05-16T05:35:51;15.80;84.90
54006;DHT22;39919;38.160;-122.260;2023-05-16T05:38:26;15.70;84.90
54006;DHT22;39919;38.160;-122.260;2023-05-16T05:40:55;15.70;85.20
54006;DHT22;39919;38.160;-122.260;2023-05-16T05:43:24;15.60;85.20
54006;DHT22;39919;38.160;-122.260;2023-05-16T05:45:54;15.60;85.60
54006;DHT22;39919;38.160;-122.260;2023-05-16T05:48:23;15.50;86.20
54006;DHT22;39919;38.160;-122.260;2023-05-16T05:50:54;15.40;86.10
54006;DHT22;39919;38.160;-122.260;2023-05-16T05:53:29;15.40;86.00
54006;DHT22;39919;38.160;-122.260;2023-05-16T05:56:01;15.40;86.50
54006;DHT22;39919;38.160;-122.260;2023-05-16T05:58:30;15.30;86.60
54006;DHT22;39919;38.160;-122.260;2023-05-16T06:01:00;15.30;86.70
54006;DHT22;39919;38.160;-122.260;2023-05-16T06:03:29;15.20;86.70
54006;DHT22;39919;38.160;-122.260;2023-05-16T06:06:06;15.20;87.20
54006;DHT22;39919;38.160;-122.260;2023-05-16T06:08:38;15.20;87.70
54006;DHT22;39919;38.160;-122.260;2023-05-16T06:11:10;15.10;88.20
54006;DHT22;39919;38.160;-122.260;2023-05-16T06:13:39;15.10;88.90
54006;DHT22;39919;38.160;-122.260;2023-05-16T06:16:09;15.00;88.40
54006;DHT22;39919;38.160;-122.260;2023-05-16T06:18:43;15.00;89.40
54006;DHT22;39919;38.160;-122.260;2023-05-16T06:21:22;15.00;89.80
54006;DHT22;39919;38.160;-122.260;2023-05-16T06:23:53;14.90;89.90
54006;DHT22;39919;38.160;-122.260;2023-05-16T06:26:23;14.90;90.10
54006;DHT22;39919;38.160;-122.260;2023-05-16T06:28:52;14.90;90.50
54006;DHT22;39919;38.160;-122.260;2023-05-16T06:31:21;14.90;90.60
54006;DHT22;39919;38.160;-122.260;2023-05-16T06:33:51;14.80;90.80
54006;DHT22;39919;38.160;-122.260;2023-05-16T06:36:22;14.80;91.30
54006;DHT22;39919;38.160;-122.260;2023-05-16T06:38:53;14.80;91.40
54006;DHT22;39919;38.160;-122.260;2023-05-16T06:41:23;14.70;91.60
54006;DHT22;39919;38.160;-122.260;2023-05-16T06:43:55;14.70;91.50
54006;DHT22;39919;38.160;-122.260;2023-05-16T06:46:28;14.70;91.80
54006;DHT22;39919;38.160;-122.260;2023-05-16T06:48:57;14.70;92.20
54006;DHT22;39919;38.160;-122.260;2023-05-16T06:51:33;14.60;92.40
54006;DHT22;39919;38.160;-122.260;2023-05-16T06:54:04;14.60;92.60
54006;DHT22;39919;38.160;-122.260;2023-05-16T06:56:35;14.60;92.60
54006;DHT22;39919;38.160;-122.260;2023-05-16T06:59:05;14.60;92.40
54006;DHT22;39919;38.160;-122.260;2023-05-16T07:01:34;14.60;92.70
54006;DHT22;39919;38.160;-122.260;2023-05-16T07:04:03;14.50;92.90
54006;DHT22;39919;38.160;-122.260;2023-05-16T07:06:35;14.50;93.30
54006;DHT22;39919;38.160;-122.260;2023-05-16T07:09:14;14.50;93.10
54006;DHT22;39919;38.160;-122.260;2023-05-16T07:11:43;14.50;93.30
54006;DHT22;39919;38.160;-122.260;2023-05-16T07:14:15;14.40;93.20
54006;DHT22;39919;38.160;-122.260;2023-05-16T07:16:45;14.40;93.20
54006;DHT22;39919;38.160;-122.260;2023-05-16T07:19:14;14.40;93.60
54006;DHT22;39919;38.160;-122.260;2023-05-16T07:21:44;14.40;94.00
54006;DHT22;39919;38.160;-122.260;2023-05-16T07:24:15;14.40;94.30
54006;DHT22;39919;38.160;-122.260;2023-05-16T07:26:44;14.40;94.80
54006;DHT22;39919;38.160;-122.260;2023-05-16T07:29:19;14.40;99.90
54006;DHT22;39919;38.160;-122.260;2023-05-16T07:31:51;14.40;99.90
54006;DHT22;39919;38.160;-122.260;2023-05-16T07:34:20;14.40;99.90
54006;DHT22;39919;38.160;-122.260;2023-05-16T07:36:52;14.30;99.90
54006;DHT22;39919;38.160;-122.260;2023-05-16T07:39:23;14.30;99.90
54006;DHT22;39919;38.160;-122.260;2023-05-16T07:41:55;14.30;99.90
54006;DHT22;39919;38.160;-122.260;2023-05-16T07:44:29;14.30;99.90
54006;DHT22;39919;38.160;-122.260;2023-05-16T07:47:01;14.20;99.90
54006;DHT22;39919;38.160;-122.260;2023-05-16T07:49:33;14.20;99.90
54006;DHT22;39919;38.160;-122.260;2023-05-16T07:52:03;14.20;99.90
54006;DHT22;39919;38.160;-122.260;2023-05-16T07:54:40;14.20;99.90
54006;DHT22;39919;38.160;-122.260;2023-05-16T07:57:16;14.20;99.90
54006;DHT22;39919;38.160;-122.260;2023-05-16T07:59:49;14.20;99.90
54006;DHT22;39919;38.160;-122.260;2023-05-16T08:02:22;14.10;99.90
54006;DHT22;39919;38.160;-122.260;2023-05-16T08:04:55;14.10;99.90
54006;DHT22;39919;38.160;-122.260;2023-05-16T08:07:27;14.10;99.90
54006;DHT22;39919;38.160;-122.260;2023-05-16T08:09:58;14.10;99.90
54006;DHT22;39919;38.160;-122.260;2023-05-16T08:12:27;14.00;99.90
54006;DHT22;39919;38.160;-122.260;2023-05-16T08:14:59;14.10;99.90
54006;DHT22;39919;38.160;-122.260;2023-05-16T08:17:28;14.10;99.90
54006;DHT22;39919;38.160;-122.260;2023-05-16T08:19:57;14.10;99.90
54006;DHT22;39919;38.160;-122.260;2023-05-16T08:22:30;14.10;99.90
54006;DHT22;39919;38.160;-122.260;2023-05-16T08:25:01;14.10;99.90
54006;DHT22;39919;38.160;-122.260;2023-05-16T08:27:31;14.10;99.90
54006;DHT22;39919;38.160;-122.260;2023-05-16T08:30:00;14.10;99.90
54006;DHT22;39919;38.160;-122.260;2023-05-16T08:32:29;14.10;99.90
54006;DHT22;39919;38.160;-122.260;2023-05-16T08:34:59;14.20;99.90
54006;DHT22;39919;38.160;-122.260;2023-05-16T08:37:29;14.20;99.90
54006;DHT22;39919;38.160;-122.260;2023-05-16T08:40:00;14.10;99.90
54006;DHT22;39919;38.160;-122.260;2023-05-16T08:42:29;14.10;99.90
54006;DHT22;39919;38.160;-122.260;2023-05-16T08:44:59;14.10;99.90
54006;DHT22;39919;38.160;-122.260;2023-05-16T08:47:32;14.10;99.90
54006;DHT22;39919;38.160;-122.260;2023-05-16T08:50:03;14.00;99.90
54006;DHT22;39919;38.160;-122.260;2023-05-16T08:52:33;14.10;99.90
54006;DHT22;39919;38.160;-122.260;2023-05-16T08:55:11;14.00;99.90
54006;DHT22;39919;38.160;-122.260;2023-05-16T08:57:41;14.00;99.90
54006;DHT22;39919;38.160;-122.260;2023-05-16T09:00:14;14.00;99.90
54006;DHT22;39919;38.160;-122.260;2023-05-16T09:02:43;14.00;99.90
54006;DHT22;39919;38.160;-122.260;2023-05-16T09:05:16;14.10;99.90
54006;DHT22;39919;38.160;-122.260;2023-05-16T09:07:46;14.10;99.90
54006;DHT22;39919;38.160;-122.260;2023-05-16T09:10:17;14.10;99.90
54006;DHT22;39919;38.160;-122.260;2023-05-16T09:12:46;14.10;99.90
54006;DHT22;39919;38.160;-122.260;2023-05-16T09:15:23;14.10;99.90
54006;DHT22;39919;38.160;-122.260;2023-05-16T09:18:01;14.10;99.90
54006;DHT22;39919;38.160;-122.260;2023-05-16T09:20:31;14.10;99.90
54006;DHT22;39919;38.160;-122.260;2023-05-16T09:23:03;14.10;99.90
54006;DHT22;39919;38.160;-122.260;2023-05-16T09:25:37;14.20;99.90
54006;DHT22;39919;38.160;-122.260;2023-05-16T09:28:10;14.20;99.90
54006;DHT22;39919;38.160;-122.260;2023-05-16T09:30:40;14.20;99.90
54006;DHT22;39919;38.160;-122.260;2023-05-16T09:33:19;14.20;99.90
54006;DHT22;39919;38.160;-122.260;2023-05-16T09:35:55;14.20;99.90
54006;DHT22;39919;38.160;-122.260;2023-05-16T09:38:25;14.20;99.90
54006;DHT22;39919;38.160;-122.260;2023-05-16T09:40:56;14.20;99.90
54006;DHT22;39919;38.160;-122.260;2023-05-16T09:43:26;14.20;99.90
54006;DHT22;39919;38.160;-122.260;2023-05-16T09:45:59;14.20;99.90
54006;DHT22;39919;38.160;-122.260;2023-05-16T09:48:36;14.10;99.90
54006;DHT22;39919;38.160;-122.260;2023-05-16T09:51:14;14.10;99.90
54006;DHT22;39919;38.160;-122.260;2023-05-16T09:53:46;14.20;99.90
54006;DHT22;39919;38.160;-122.260;2023-05-16T09:56:17;14.20;99.90
54006;DHT22;39919;38.160;-122.260;2023-05-16T09:58:47;14.10;99.90
54006;DHT22;39919;38.160;-122.260;2023-05-16T10:01:22;14.10;99.90
54006;DHT22;39919;38.160;-122.260;2023-05-16T10:03:51;14.10;99.90
54006;DHT22;39919;38.160;-122.260;2023-05-16T10:06:21;14.10;99.90
54006;DHT22;39919;38.160;-122.260;2023-05-16T10:08:52;14.10;99.90
54006;DHT22;39919;38.160;-122.260;2023-05-16T10:11:23;14.10;99.90
54006;DHT22;39919;38.160;-122.260;2023-05-16T10:13:56;14.10;99.90
54006;DHT22;39919;38.160;-122.260;2023-05-16T10:16:26;14.20;99.90
54006;DHT22;39919;38.160;-122.260;2023-05-16T10:18:55;14.20;99.90
54006;DHT22;39919;38.160;-122.260;2023-05-16T10:21:26;14.20;99.90
54006;DHT22;39919;38.160;-122.260;2023-05-16T10:23:58;14.30;99.90
54006;DHT22;39919;38.160;-122.260;2023-05-16T10:26:34;14.30;99.90
54006;DHT22;39919;38.160;-122.260;2023-05-16T10:29:04;14.30;99.90
54006;DHT22;39919;38.160;-122.260;2023-05-16T10:31:35;14.30;99.90
54006;DHT22;39919;38.160;-122.260;2023-05-16T10:34:09;14.30;99.90
54006;DHT22;39919;38.160;-122.260;2023-05-16T10:36:41;14.30;99.90
54006;DHT22;39919;38.160;-122.260;2023-05-16T10:39:11;14.30;99.90
54006;DHT22;39919;38.160;-122.260;2023-05-16T10:41:43;14.30;99.90
54006;DHT22;39919;38.160;-122.260;2023-05-16T10:44:14;14.30;99.90
54006;DHT22;39919;38.160;-122.260;2023-05-16T10:46:47;14.30;99.90
54006;DHT22;39919;38.160;-122.260;2023-05-16T10:49:21;14.30;99.90
54006;DHT22;39919;38.160;-122.260;2023-05-16T10:52:07;14.30;99.90
54006;DHT22;39919;38.160;-122.260;2023-05-16T10:54:37;14.30;99.90
54006;DHT22;39919;38.160;-122.260;2023-05-16T10:57:10;14.30;99.90
54006;DHT22;39919;38.160;-122.260;2023-05-16T10:59:51;14.40;99.90
54006;DHT22;39919;38.160;-122.260;2023-05-16T11:02:28;14.40;99.90
54006;DHT22;39919;38.160;-122.260;2023-05-16T11:05:01;14.50;99.90
54006;DHT22;39919;38.160;-122.260;2023-05-16T11:07:33;14.40;99.90
54006;DHT22;39919;38.160;-122.260;2023-05-16T11:10:05;14.50;99.90
54006;DHT22;39919;38.160;-122.260;2023-05-16T11:12:48;14.50;99.90
54006;DHT22;39919;38.160;-122.260;2023-05-16T11:15:20;14.50;99.90
54006;DHT22;39919;38.160;-122.260;2023-05-16T11:17:49;14.50;99.90
54006;DHT22;39919;38.160;-122.260;2023-05-16T11:20:28;14.50;99.90
54006;DHT22;39919;38.160;-122.260;2023-05-16T11:23:20;14.60;99.90
54006;DHT22;39919;38.160;-122.260;2023-05-16T11:25:54;14.60;99.90
54006;DHT22;39919;38.160;-122.260;2023-05-16T11:28:28;14.60;99.90
54006;DHT22;39919;38.160;-122.260;2023-05-16T11:30:58;14.70;99.90
54006;DHT22;39919;38.160;-122.260;2023-05-16T11:33:31;14.60;99.90
54006;DHT22;39919;38.160;-122.260;2023-05-16T11:36:07;14.70;99.90
54006;DHT22;39919;38.160;-122.260;2023-05-16T11:38:37;14.70;99.90
54006;DHT22;39919;38.160;-122.260;2023-05-16T11:41:09;14.70;99.90
54006;DHT22;39919;38.160;-122.260;2023-05-16T11:43:42;14.70;99.90
54006;DHT22;39919;38.160;-122.260;2023-05-16T11:46:12;14.70;99.90
54006;DHT22;39919;38.160;-122.260;2023-05-16T11:48:43;14.70;99.90
54006;DHT22;39919;38.160;-122.260;2023-05-16T11:51:13;14.70;99.90
54006;DHT22;39919;38.160;-122.260;2023-05-16T11:53:50;14.70;99.90
54006;DHT22;39919;38.160;-122.260;2023-05-16T11:56:21;14.70;99.90
54006;DHT22;39919;38.160;-122.260;2023-05-16T11:58:53;14.80;99.90
54006;DHT22;39919;38.160;-122.260;2023-05-16T12:01:22;14.80;99.90
54006;DHT22;39919;38.160;-122.260;2023-05-16T12:03:58;14.80;99.90
54006;DHT22;39919;38.160;-122.260;2023-05-16T12:06:27;14.80;99.90
54006;DHT22;39919;38.160;-122.260;2023-05-16T12:08:57;14.80;99.90
54006;DHT22;39919;38.160;-122.260;2023-05-16T12:11:30;14.80;99.90
54006;DHT22;39919;38.160;-122.260;2023-05-16T12:14:01;14.70;99.90
54006;DHT22;39919;38.160;-122.260;2023-05-16T12:16:30;14.80;99.90
54006;DHT22;39919;38.160;-122.260;2023-05-16T12:19:00;14.70;99.90
54006;DHT22;39919;38.160;-122.260;2023-05-16T12:21:30;14.80;99.90
54006;DHT22;39919;38.160;-122.260;2023-05-16T12:24:01;14.80;99.90
54006;DHT22;39919;38.160;-122.260;2023-05-16T12:26:31;14.70;99.90
54006;DHT22;39919;38.160;-122.260;2023-05-16T12:29:02;14.70;99.90
54006;DHT22;39919;38.160;-122.260;2023-05-16T12:31:36;14.70;99.90
54006;DHT22;39919;38.160;-122.260;2023-05-16T12:34:15;14.70;99.90
54006;DHT22;39919;38.160;-122.260;2023-05-16T12:36:44;14.70;99.90
54006;DHT22;39919;38.160;-122.260;2023-05-16T12:39:13;14.60;99.90
54006;DHT22;39919;38.160;-122.260;2023-05-16T12:41:45;14.60;99.90
54006;DHT22;39919;38.160;-122.260;2023-05-16T12:44:19;14.50;99.90
54006;DHT22;39919;38.160;-122.260;2023-05-16T12:46:51;14.60;99.90
54006;DHT22;39919;38.160;-122.260;2023-05-16T12:49:23;14.50;99.90
54006;DHT22;39919;38.160;-122.260;2023-05-16T12:52:03;14.50;99.90
54006;DHT22;39919;38.160;-122.260;2023-05-16T12:54:33;14.50;99.90
54006;DHT22;39919;38.160;-122.260;2023-05-16T12:57:03;14.50;99.90
54006;DHT22;39919;38.160;-122.260;2023-05-16T12:59:41;14.50;99.90
54006;DHT22;39919;38.160;-122.260;2023-05-16T13:02:15;14.50;99.90
54006;DHT22;39919;38.160;-122.260;2023-05-16T13:04:50;14.50;99.90
54006;DHT22;39919;38.160;-122.260;2023-05-16T13:07:19;14.50;99.90
54006;DHT22;39919;38.160;-122.260;2023-05-16T13:09:52;14.50;99.90
54006;DHT22;39919;38.160;-122.260;2023-05-16T13:12:21;14.50;99.90
54006;DHT22;39919;38.160;-122.260;2023-05-16T13:14:54;14.50;99.90
54006;DHT22;39919;38.160;-122.260;2023-05-16T13:17:24;14.40;99.90
54006;DHT22;39919;38.160;-122.260;2023-05-16T13:19:56;14.50;99.90
54006;DHT22;39919;38.160;-122.260;2023-05-16T13:22:25;14.50;99.90
54006;DHT22;39919;38.160;-122.260;2023-05-16T13:24:54;14.40;99.90
54006;DHT22;39919;38.160;-122.260;2023-05-16T13:27:26;14.40;99.90
54006;DHT22;39919;38.160;-122.260;2023-05-16T13:29:57;14.50;99.90
54006;DHT22;39919;38.160;-122.260;2023-05-16T13:32:32;14.40;99.90
54006;DHT22;39919;38.160;-122.260;2023-05-16T13:35:04;14.40;99.90
54006;DHT22;39919;38.160;-122.260;2023-05-16T13:37:35;14.40;99.90
54006;DHT22;39919;38.160;-122.260;2023-05-16T13:40:08;14.40;99.90
54006;DHT22;39919;38.160;-122.260;2023-05-16T13:42:40;14.40;99.90
54006;DHT22;39919;38.160;-122.260;2023-05-16T13:45:19;14.40;99.90
54006;DHT22;39919;38.160;-122.260;2023-05-16T13:47:51;14.40;99.90
54006;DHT22;39919;38.160;-122.260;2023-05-16T13:50:21;14.50;99.90
54006;DHT22;39919;38.160;-122.260;2023-05-16T13:52:50;14.50;99.90
54006;DHT22;39919;38.160;-122.260;2023-05-16T13:55:20;14.50;99.90
54006;DHT22;39919;38.160;-122.260;2023-05-16T13:57:49;14.50;99.90
54006;DHT22;39919;38.160;-122.260;2023-05-16T14:00:20;14.50;99.90
54006;DHT22;39919;38.160;-122.260;2023-05-16T14:02:50;14.50;99.90
54006;DHT22;39919;38.160;-122.260;2023-05-16T14:05:19;14.50;99.90
54006;DHT22;39919;38.160;-122.260;2023-05-16T14:07:52;14.50;99.90
54006;DHT22;39919;38.160;-122.260;2023-05-16T14:10:21;14.50;99.90
54006;DHT22;39919;38.160;-122.260;2023-05-16T14:12:54;14.50;99.90
54006;DHT22;39919;38.160;-122.260;2023-05-16T14:15:25;14.50;99.90
54006;DHT22;39919;38.160;-122.260;2023-05-16T14:17:54;14.60;99.90
54006;DHT22;39919;38.160;-122.260;2023-05-16T14:20:28;14.60;99.90
54006;DHT22;39919;38.160;-122.260;2023-05-16T14:22:57;14.60;99.90
54006;DHT22;39919;38.160;-122.260;2023-05-16T14:25:32;14.60;99.90
54006;DHT22;39919;38.160;-122.260;2023-05-16T14:28:01;14.70;99.90
54006;DHT22;39919;38.160;-122.260;2023-05-16T14:30:32;14.70;99.90
54006;DHT22;39919;38.160;-122.260;2023-05-16T14:33:03;14.80;99.90
54006;DHT22;39919;38.160;-122.260;2023-05-16T14:35:32;14.80;99.90
54006;DHT22;39919;38.160;-122.260;2023-05-16T14:38:04;14.90;99.90
54006;DHT22;39919;38.160;-122.260;2023-05-16T14:40:36;14.90;99.90
54006;DHT22;39919;38.160;-122.260;2023-05-16T14:43:06;15.00;99.90
54006;DHT22;39919;38.160;-122.260;2023-05-16T14:45:44;15.10;99.90
54006;DHT22;39919;38.160;-122.260;2023-05-16T14:48:13;15.10;99.90
54006;DHT22;39919;38.160;-122.260;2023-05-16T14:50:43;15.20;99.90
54006;DHT22;39919;38.160;-122.260;2023-05-16T14:53:14;15.30;99.90
54006;DHT22;39919;38.160;-122.260;2023-05-16T14:55:44;15.40;99.90
54006;DHT22;39919;38.160;-122.260;2023-05-16T14:58:13;15.50;99.90
54006;DHT22;39919;38.160;-122.260;2023-05-16T15:00:44;15.50;99.90
54006;DHT22;39919;38.160;-122.260;2023-05-16T15:03:14;15.60;99.90
54006;DHT22;39919;38.160;-122.260;2023-05-16T15:05:44;15.60;99.90
54006;DHT22;39919;38.160;-122.260;2023-05-16T15:08:13;15.70;99.50
54006;DHT22;39919;38.160;-122.260;2023-05-16T15:10:43;15.70;99.30
54006;DHT22;39919;38.160;-122.260;2023-05-16T15:13:12;15.80;99.20
54006;DHT22;39919;38.160;-122.260;2023-05-16T15:15:46;15.80;98.80
54006;DHT22;39919;38.160;-122.260;2023-05-16T15:18:15;15.90;98.40
54006;DHT22;39919;38.160;-122.260;2023-05-16T15:20:44;16.00;97.90